Terminal Aerodrome Forecast
Issued by NWS Norman, OK

Home | Current Version | Previous Version | Text Only | Print | Product List | Glossary On
Versions: 1 2 3 4 5 6 7 8 9 10 11 12 13 14 15 16 17 18 19 20 21 22 23 24
000
FTUS44 KOUN 281139
TAFOKC
TAF
KOKC 281139Z 2812/2912 18011KT P6SM VCSH BKN100
     FM281600 17014KT P6SM SCT050 BKN120 PROB30 2821/2903 4SM -TSRA
      BR BKN050CB
     FM290300 13010KT P6SM BKN150=

USA.gov is the U.S. government's official web portal to all federal, state and local government web resources and services.